Главная страница
METAR-TAF:

METAR-TAF

Аэропорты :

Вардё, Норвегия

широта: 70-21N, долгота: 031-03E, высота над уровнем моря: 12 м

Текущие метеонаблюдения

Эта сводка был подготовлена 49 минут назад, в 15:50 UTC
Ветер 5 Узел от юго-восточный
Температура 8°C
Влажность 100%
Давление 1026 hPa
Видимость 10 км и более
Сплошная облачность на высоте 300 фута

METAR: ENSS 231550Z 13005KT 9999 OVC003 08/08 Q1026 RMK WIND 500FT 10005KT

Время: 18:39 (16:39 UTC)


TAF: отсутствует

Метеонаблюдения и прогнозы для более 4000 аэропортов (сводки METAR и TAF).

Имеющиеся станции представлены на карте желтыми и красными точками.

Чтобы увидеть название станции, наведите на нее мышь.

Затем щелкните, чтобы увидеть метеонаблюдения и метеопрогнозы.

Управление картой: чтобы увеличить масштаб, щелкните зеленые кнопки с черным крестиком; чтобы уменьшить масштаб, щелкните зеленую кнопку с тире; для просмотра соседних карт щелкайте зеленые стрелки.


METAR-TAF: